createdAt,value
2018-09-19T00:01:51.320Z,16.60
2018-09-19T00:04:19.665Z,16.60
2018-09-19T00:06:47.948Z,16.60
2018-09-19T00:09:16.222Z,16.60
2018-09-19T00:11:44.510Z,16.60
2018-09-19T00:14:12.786Z,16.50
2018-09-19T00:16:41.088Z,16.50
2018-09-19T00:19:09.382Z,16.60
2018-09-19T00:21:37.698Z,16.60
2018-09-19T00:24:06.004Z,16.40
2018-09-19T00:26:34.297Z,16.40
2018-09-19T00:29:02.685Z,16.40
2018-09-19T00:31:30.855Z,16.30
2018-09-19T00:33:59.158Z,16.20
2018-09-19T00:36:27.437Z,16.20
2018-09-19T00:38:55.733Z,16.20
2018-09-19T00:41:24.012Z,16.20
2018-09-19T00:43:52.837Z,16.30
2018-09-19T00:46:21.129Z,16.40
2018-09-19T00:48:49.432Z,16.50
2018-09-19T00:51:17.737Z,16.50
2018-09-19T00:53:46.058Z,16.50
2018-09-19T00:56:14.298Z,16.60
2018-09-19T00:58:42.598Z,16.50
2018-09-19T01:01:10.896Z,16.40
2018-09-19T01:03:39.183Z,16.30
2018-09-19T01:06:07.533Z,16.40
2018-09-19T01:08:35.800Z,16.40
2018-09-19T01:11:04.089Z,16.50
2018-09-19T01:13:32.364Z,16.50
2018-09-19T01:16:00.671Z,16.50
2018-09-19T01:18:28.968Z,16.60
2018-09-19T01:20:57.244Z,16.60
2018-09-19T01:23:25.520Z,16.50
2018-09-19T01:25:53.801Z,16.60
2018-09-19T01:28:22.225Z,16.60
2018-09-19T01:30:50.512Z,16.60
2018-09-19T01:33:18.798Z,16.60
2018-09-19T01:35:47.092Z,16.70
2018-09-19T01:38:15.377Z,16.70
2018-09-19T01:40:43.663Z,16.70
2018-09-19T01:43:11.949Z,16.70
2018-09-19T01:45:40.254Z,16.70
2018-09-19T01:48:08.553Z,16.60
2018-09-19T01:50:36.860Z,16.60
2018-09-19T01:53:05.170Z,16.60
2018-09-19T01:55:33.467Z,16.60
2018-09-19T01:58:01.756Z,16.70
2018-09-19T02:00:30.032Z,16.60
2018-09-19T02:02:58.288Z,16.60
2018-09-19T02:05:26.592Z,16.60
2018-09-19T02:07:54.861Z,16.70
2018-09-19T02:10:23.246Z,16.60
2018-09-19T02:12:51.521Z,16.60
2018-09-19T02:15:19.796Z,16.60
2018-09-19T02:17:48.086Z,16.70
2018-09-19T02:20:16.373Z,16.70
2018-09-19T02:22:44.656Z,16.70
2018-09-19T02:25:12.930Z,16.60
2018-09-19T02:27:41.200Z,16.50
2018-09-19T02:30:09.489Z,16.40
2018-09-19T02:32:37.781Z,16.20
2018-09-19T02:35:06.071Z,16.10
2018-09-19T02:37:34.356Z,16.10
2018-09-19T02:40:02.652Z,16.10
2018-09-19T02:42:30.916Z,16.10
2018-09-19T02:44:59.177Z,16.10
2018-09-19T02:47:27.469Z,16.20
2018-09-19T02:49:55.766Z,16.20
2018-09-19T02:52:24.051Z,16.10
2018-09-19T02:54:52.353Z,16.00
2018-09-19T02:57:20.633Z,16.00
2018-09-19T02:59:48.903Z,15.90
2018-09-19T03:02:17.179Z,15.80
2018-09-19T03:04:45.503Z,15.80
2018-09-19T03:07:13.717Z,15.70
2018-09-19T03:09:41.996Z,15.70
2018-09-19T03:12:10.302Z,15.70
2018-09-19T03:14:38.559Z,15.60
2018-09-19T03:17:06.870Z,15.60
2018-09-19T03:19:35.127Z,15.70
2018-09-19T03:22:03.401Z,15.70
2018-09-19T03:24:31.684Z,15.70
2018-09-19T03:26:59.954Z,15.70
2018-09-19T03:29:28.237Z,15.70
2018-09-19T03:31:56.524Z,15.70
2018-09-19T03:34:24.793Z,15.70
2018-09-19T03:36:53.075Z,15.70
2018-09-19T03:39:21.357Z,15.70
2018-09-19T03:41:49.640Z,15.70
2018-09-19T03:44:17.922Z,15.60
2018-09-19T03:46:46.208Z,15.60
2018-09-19T03:49:14.488Z,15.60
2018-09-19T03:51:42.764Z,15.40
2018-09-19T03:54:11.047Z,15.40
2018-09-19T03:56:39.326Z,15.40
2018-09-19T03:59:07.734Z,15.50
2018-09-19T04:01:35.988Z,15.40
2018-09-19T04:04:04.284Z,15.40
2018-09-19T04:06:32.560Z,15.40
2018-09-19T04:09:00.847Z,15.40
2018-09-19T04:11:29.133Z,15.40
2018-09-19T04:13:57.406Z,15.30
2018-09-19T04:16:25.700Z,15.20
2018-09-19T04:18:53.988Z,15.20
2018-09-19T04:21:22.281Z,15.20
2018-09-19T04:23:50.577Z,15.20
2018-09-19T04:26:18.886Z,15.20
2018-09-19T04:28:47.166Z,15.20
2018-09-19T04:31:15.436Z,15.20
2018-09-19T04:33:43.788Z,15.10
2018-09-19T04:36:12.067Z,14.90
2018-09-19T04:38:40.350Z,14.90
2018-09-19T04:41:08.635Z,14.90
2018-09-19T04:43:36.923Z,14.90
2018-09-19T04:46:05.222Z,14.90
2018-09-19T04:48:33.519Z,14.90
2018-09-19T04:51:01.777Z,14.80
2018-09-19T04:53:30.070Z,14.80
2018-09-19T04:55:58.345Z,14.70
2018-09-19T04:58:26.654Z,14.70
2018-09-19T05:00:54.964Z,14.70
2018-09-19T05:03:23.244Z,14.70
2018-09-19T05:05:51.599Z,14.70
2018-09-19T05:08:19.854Z,14.80
2018-09-19T05:10:48.148Z,14.80
2018-09-19T05:13:16.420Z,14.70
2018-09-19T05:15:44.708Z,14.60
2018-09-19T05:18:12.984Z,14.50
2018-09-19T05:20:41.271Z,14.60
2018-09-19T05:23:09.569Z,14.60
2018-09-19T05:25:37.846Z,14.70
2018-09-19T05:28:06.129Z,14.70
2018-09-19T05:30:34.396Z,14.80
2018-09-19T05:33:02.688Z,14.80
2018-09-19T05:35:30.986Z,14.80
2018-09-19T05:37:59.266Z,14.80
2018-09-19T05:40:27.550Z,14.90
2018-09-19T05:42:55.816Z,14.90
2018-09-19T05:45:24.104Z,15.00
2018-09-19T05:47:52.385Z,15.00
2018-09-19T05:50:20.672Z,15.00
2018-09-19T05:52:48.936Z,15.00
2018-09-19T05:55:17.218Z,15.10
2018-09-19T05:57:45.529Z,15.20
2018-09-19T06:00:13.801Z,15.20
2018-09-19T06:02:42.073Z,15.30
2018-09-19T06:05:10.397Z,15.40
2018-09-19T06:07:38.659Z,15.40
2018-09-19T06:10:06.969Z,15.50
2018-09-19T06:12:35.258Z,15.60
2018-09-19T06:15:03.582Z,15.50
2018-09-19T06:17:31.892Z,15.60
2018-09-19T06:20:00.164Z,15.60
2018-09-19T06:22:28.449Z,15.70
2018-09-19T06:24:56.724Z,15.70
2018-09-19T06:27:25.008Z,15.80
2018-09-19T06:29:53.285Z,15.90
2018-09-19T06:32:21.566Z,15.90
2018-09-19T06:34:49.829Z,16.10
2018-09-19T06:37:18.105Z,16.20
2018-09-19T06:39:46.384Z,16.30
2018-09-19T06:42:14.668Z,16.30
2018-09-19T06:44:42.953Z,16.40
2018-09-19T06:47:11.230Z,16.50
2018-09-19T06:49:39.573Z,16.60
2018-09-19T06:52:07.851Z,16.70
2018-09-19T06:54:36.086Z,16.90
2018-09-19T06:57:04.334Z,17.00
2018-09-19T06:59:32.701Z,17.00
2018-09-19T07:02:00.913Z,17.10
2018-09-19T07:04:29.196Z,17.20
2018-09-19T07:06:57.484Z,17.20
2018-09-19T07:09:25.750Z,17.30
2018-09-19T07:11:54.029Z,17.40
2018-09-19T07:14:22.289Z,17.40
2018-09-19T07:16:50.572Z,17.50
2018-09-19T07:19:18.848Z,17.60
2018-09-19T07:21:47.131Z,17.60
2018-09-19T07:24:15.535Z,17.70
2018-09-19T07:26:43.838Z,17.80
2018-09-19T07:29:12.175Z,17.80
2018-09-19T07:31:40.417Z,17.80
2018-09-19T07:34:08.716Z,17.80
2018-09-19T07:36:36.984Z,17.90
2018-09-19T07:39:08.334Z,18.00
2018-09-19T07:41:36.628Z,18.10
2018-09-19T07:44:04.924Z,18.20
2018-09-19T07:46:33.216Z,18.20
2018-09-19T07:49:01.460Z,18.30
2018-09-19T07:51:29.859Z,18.40
2018-09-19T07:53:58.141Z,18.40
2018-09-19T07:56:26.412Z,18.40
2018-09-19T07:58:54.688Z,18.50
2018-09-19T08:01:23.083Z,18.70
2018-09-19T08:03:51.258Z,18.80
2018-09-19T08:06:19.529Z,19.00
2018-09-19T08:08:47.812Z,19.20
2018-09-19T08:11:16.107Z,19.30
2018-09-19T08:13:44.382Z,19.50
2018-09-19T08:16:12.684Z,19.70
2018-09-19T08:18:40.949Z,19.80
2018-09-19T08:21:09.232Z,20.00
2018-09-19T08:23:37.512Z,20.30
2018-09-19T08:26:05.819Z,20.40
2018-09-19T08:28:34.111Z,20.40
2018-09-19T08:31:02.381Z,20.50
2018-09-19T08:33:30.656Z,20.50
2018-09-19T08:35:58.933Z,20.60
2018-09-19T08:38:27.209Z,20.60
2018-09-19T08:40:55.487Z,20.60
2018-09-19T08:43:23.764Z,20.70
2018-09-19T08:45:52.073Z,20.70
2018-09-19T08:48:20.519Z,20.70
2018-09-19T08:50:48.876Z,20.90
2018-09-19T08:53:17.181Z,21.10
2018-09-19T08:55:45.466Z,21.20
2018-09-19T08:58:13.733Z,21.40
2018-09-19T09:00:42.026Z,21.60
2018-09-19T09:03:10.313Z,21.60
2018-09-19T09:05:38.595Z,21.90
2018-09-19T09:08:07.959Z,22.20
2018-09-19T09:10:36.296Z,22.40
2018-09-19T09:13:04.576Z,22.60
2018-09-19T09:15:32.859Z,22.60
2018-09-19T09:18:01.141Z,22.50
2018-09-19T09:20:29.494Z,22.60
2018-09-19T09:22:57.705Z,22.70
2018-09-19T09:25:26.018Z,22.70
2018-09-19T09:27:54.294Z,22.70
2018-09-19T09:30:23.358Z,22.70
2018-09-19T09:32:51.636Z,22.70
2018-09-19T09:35:19.920Z,22.80
2018-09-19T09:37:48.344Z,22.90
2018-09-19T09:40:16.653Z,23.00
2018-09-19T09:42:44.925Z,23.10
2018-09-19T09:45:13.192Z,23.20
2018-09-19T09:47:41.492Z,23.20
2018-09-19T09:50:09.817Z,23.30
2018-09-19T09:52:38.048Z,23.40
2018-09-19T09:55:06.442Z,23.60
2018-09-19T09:57:34.692Z,23.80
2018-09-19T10:00:02.989Z,23.80
2018-09-19T10:02:31.281Z,23.80
2018-09-19T10:04:59.560Z,23.90
2018-09-19T10:07:27.829Z,23.90
2018-09-19T10:09:56.113Z,24.00
2018-09-19T10:12:24.422Z,24.00
2018-09-19T10:14:52.738Z,23.90
2018-09-19T10:17:21.020Z,24.00
2018-09-19T10:19:49.300Z,24.10
2018-09-19T10:22:17.592Z,24.20
2018-09-19T10:24:45.885Z,24.20
2018-09-19T10:27:14.156Z,24.10
2018-09-19T10:29:42.538Z,24.00
2018-09-19T10:32:10.736Z,24.00
2018-09-19T10:34:39.020Z,24.00
2018-09-19T10:37:07.567Z,23.90
2018-09-19T10:39:35.834Z,23.60
2018-09-19T10:42:04.141Z,23.20
2018-09-19T10:44:32.417Z,22.80
2018-09-19T10:47:00.702Z,22.80
2018-09-19T10:49:29.003Z,22.60
2018-09-19T10:51:57.284Z,22.60
2018-09-19T10:54:25.749Z,22.60
2018-09-19T10:56:54.086Z,22.60
2018-09-19T10:59:22.313Z,22.60
2018-09-19T11:01:50.579Z,22.50
2018-09-19T11:04:18.864Z,22.60
2018-09-19T11:06:47.157Z,22.70
2018-09-19T11:09:15.448Z,22.70
2018-09-19T11:11:44.584Z,22.50
2018-09-19T11:14:12.880Z,22.60
2018-09-19T11:16:41.149Z,22.50
2018-09-19T11:19:09.455Z,22.50
2018-09-19T11:21:37.808Z,22.60
2018-09-19T11:24:06.594Z,22.70
2018-09-19T11:26:34.918Z,22.70
2018-09-19T11:29:03.165Z,22.60
2018-09-19T11:31:31.493Z,22.60
2018-09-19T11:33:59.797Z,22.60
2018-09-19T11:36:28.084Z,22.60
2018-09-19T11:38:56.361Z,22.60
2018-09-19T11:41:24.640Z,22.60
2018-09-19T11:43:53.052Z,22.60
2018-09-19T11:46:21.341Z,22.70
2018-09-19T11:48:49.673Z,22.60
2018-09-19T11:51:17.893Z,22.70
2018-09-19T11:53:46.181Z,22.80
2018-09-19T11:56:14.481Z,22.90
2018-09-19T11:58:42.760Z,23.00
2018-09-19T12:01:11.072Z,22.90
2018-09-19T12:03:39.360Z,23.10
2018-09-19T12:06:07.648Z,23.20
2018-09-19T12:08:35.934Z,23.30
2018-09-19T12:11:04.235Z,23.40
2018-09-19T12:13:32.518Z,23.40
2018-09-19T12:16:00.793Z,23.40
2018-09-19T12:18:29.072Z,23.60
2018-09-19T12:20:57.373Z,23.50
2018-09-19T12:23:25.644Z,23.60
2018-09-19T12:25:53.940Z,23.60
2018-09-19T12:28:22.221Z,23.60
2018-09-19T12:30:50.513Z,23.80
2018-09-19T12:33:18.849Z,24.00
2018-09-19T12:35:47.116Z,24.20
2018-09-19T12:38:15.429Z,24.30
2018-09-19T12:40:43.696Z,24.40
2018-09-19T12:43:11.972Z,24.50
2018-09-19T12:45:40.245Z,24.40
2018-09-19T12:48:08.528Z,24.40
2018-09-19T12:50:36.813Z,24.40
2018-09-19T12:53:05.117Z,24.40
2018-09-19T12:55:33.397Z,24.30
2018-09-19T12:58:01.717Z,24.30
2018-09-19T13:00:29.993Z,24.30
2018-09-19T13:02:58.293Z,24.20
2018-09-19T13:05:26.597Z,24.20
2018-09-19T13:07:54.874Z,24.20
2018-09-19T13:10:23.166Z,24.20
2018-09-19T13:12:51.459Z,24.40
2018-09-19T13:15:19.740Z,24.50
2018-09-19T13:17:48.029Z,24.60
2018-09-19T13:20:16.334Z,24.60
2018-09-19T13:22:44.638Z,24.70
2018-09-19T13:25:12.936Z,24.70
2018-09-19T13:27:41.231Z,24.80
2018-09-19T13:30:09.521Z,24.90
2018-09-19T13:32:37.813Z,25.00
2018-09-19T13:35:06.108Z,25.10
2018-09-19T13:37:34.397Z,25.20
2018-09-19T13:40:02.701Z,25.30
2018-09-19T13:42:30.980Z,25.40
2018-09-19T13:44:59.280Z,25.30
2018-09-19T13:47:27.627Z,25.10
2018-09-19T13:49:58.814Z,25.20
2018-09-19T13:52:27.097Z,25.30
2018-09-19T13:54:55.377Z,25.50
2018-09-19T13:57:23.657Z,25.60
2018-09-19T13:59:51.949Z,25.70
2018-09-19T14:02:20.284Z,25.50
2018-09-19T14:04:48.572Z,25.50
2018-09-19T14:07:16.852Z,25.40
2018-09-19T14:09:45.124Z,25.30
2018-09-19T14:12:13.453Z,25.30
2018-09-19T14:14:41.689Z,25.10
2018-09-19T14:17:09.973Z,25.10
2018-09-19T14:19:38.279Z,25.10
2018-09-19T14:22:06.589Z,25.20
2018-09-19T14:24:34.883Z,25.10
2018-09-19T14:27:03.136Z,24.90
2018-09-19T14:29:31.457Z,24.90
2018-09-19T14:31:59.751Z,24.90
2018-09-19T14:34:28.071Z,24.80
2018-09-19T14:36:56.368Z,24.80
2018-09-19T14:39:24.673Z,24.80
2018-09-19T14:41:52.966Z,24.70
2018-09-19T14:44:21.251Z,24.80
2018-09-19T14:46:49.561Z,24.70
2018-09-19T14:49:17.839Z,24.80
2018-09-19T14:51:46.139Z,24.90
2018-09-19T14:54:14.446Z,24.90
2018-09-19T14:56:42.698Z,24.80
2018-09-19T14:59:10.983Z,24.80
2018-09-19T15:01:39.265Z,24.80
2018-09-19T15:04:07.562Z,24.80
2018-09-19T15:06:35.841Z,24.90
2018-09-19T15:09:06.066Z,25.00
2018-09-19T15:11:34.352Z,25.00
2018-09-19T15:14:02.641Z,25.00
2018-09-19T15:16:30.920Z,25.00
2018-09-19T15:18:59.919Z,24.90
2018-09-19T15:21:28.212Z,24.60
2018-09-19T15:23:56.481Z,24.40
2018-09-19T15:26:25.005Z,24.40
2018-09-19T15:28:53.403Z,24.40
2018-09-19T15:31:21.724Z,24.30
2018-09-19T15:33:50.018Z,24.30
2018-09-19T15:36:18.307Z,24.30
2018-09-19T15:38:46.606Z,24.20
2018-09-19T15:41:14.885Z,24.00
2018-09-19T15:43:43.161Z,24.00
2018-09-19T15:46:11.433Z,23.90
2018-09-19T15:48:39.708Z,23.90
2018-09-19T15:51:08.020Z,23.90
2018-09-19T15:53:36.313Z,23.90
2018-09-19T15:56:04.606Z,24.00
2018-09-19T15:58:32.876Z,24.00
2018-09-19T16:01:01.162Z,23.90
2018-09-19T16:03:29.483Z,23.90
2018-09-19T16:05:57.866Z,23.90
2018-09-19T16:08:26.073Z,23.80
2018-09-19T16:10:54.358Z,23.70
2018-09-19T16:13:22.645Z,23.70
2018-09-19T16:15:50.949Z,23.70
2018-09-19T16:18:19.209Z,23.70
2018-09-19T16:20:47.482Z,23.70
2018-09-19T16:23:15.767Z,23.80
2018-09-19T16:25:44.053Z,23.80
2018-09-19T16:28:12.335Z,23.70
2018-09-19T16:30:40.614Z,23.80
2018-09-19T16:33:08.880Z,23.80
2018-09-19T16:35:37.249Z,23.70
2018-09-19T16:38:05.808Z,23.70
2018-09-19T16:40:33.952Z,23.70
2018-09-19T16:43:02.241Z,23.70
2018-09-19T16:45:30.568Z,23.60
2018-09-19T16:47:58.812Z,23.60
2018-09-19T16:50:27.123Z,23.60
2018-09-19T16:52:55.748Z,23.50
2018-09-19T16:55:24.004Z,23.40
2018-09-19T16:57:52.409Z,23.30
2018-09-19T17:00:20.702Z,23.10
2018-09-19T17:02:49.000Z,22.90
2018-09-19T17:05:17.313Z,22.80
2018-09-19T17:07:45.624Z,22.70
2018-09-19T17:10:13.997Z,22.60
2018-09-19T17:12:42.289Z,22.50
2018-09-19T17:15:10.596Z,22.30
2018-09-19T17:17:38.897Z,22.20
2018-09-19T17:20:07.240Z,22.00
2018-09-19T17:22:35.595Z,21.90
2018-09-19T17:25:03.905Z,21.70
2018-09-19T17:27:32.196Z,21.70
2018-09-19T17:30:00.472Z,21.60
2018-09-19T17:32:28.784Z,21.40
2018-09-19T17:34:57.112Z,21.30
2018-09-19T17:37:25.556Z,21.10
2018-09-19T17:39:53.789Z,21.00
2018-09-19T17:42:22.090Z,20.90
2018-09-19T17:44:50.394Z,20.80
2018-09-19T17:47:18.675Z,20.70
2018-09-19T17:49:47.014Z,20.60
2018-09-19T17:52:15.276Z,20.60
2018-09-19T17:54:43.559Z,20.40
2018-09-19T17:57:11.870Z,20.30
2018-09-19T17:59:40.172Z,20.20
2018-09-19T18:02:08.466Z,20.10
2018-09-19T18:04:36.929Z,20.10
2018-09-19T18:07:05.381Z,20.00
2018-09-19T18:09:33.681Z,19.90
2018-09-19T18:12:01.952Z,19.80
2018-09-19T18:14:30.248Z,19.80
2018-09-19T18:16:58.705Z,19.80
2018-09-19T18:19:26.977Z,19.70
2018-09-19T18:21:55.262Z,19.70
2018-09-19T18:24:23.549Z,19.60
2018-09-19T18:26:51.838Z,19.60
2018-09-19T18:29:20.136Z,19.50
2018-09-19T18:31:48.405Z,19.50
2018-09-19T18:34:16.700Z,19.40
2018-09-19T18:36:44.977Z,19.40
2018-09-19T18:39:13.277Z,19.40
2018-09-19T18:41:41.630Z,19.40
2018-09-19T18:44:09.905Z,19.30
2018-09-19T18:46:38.184Z,19.30
2018-09-19T18:49:06.472Z,19.20
2018-09-19T18:51:34.757Z,19.20
2018-09-19T18:54:03.102Z,19.10
2018-09-19T18:56:31.385Z,19.10
2018-09-19T18:58:59.726Z,19.00
2018-09-19T19:01:28.000Z,19.00
2018-09-19T19:03:56.274Z,18.90
2018-09-19T19:06:24.556Z,18.80
2018-09-19T19:08:52.853Z,18.80
2018-09-19T19:11:21.260Z,18.70
2018-09-19T19:13:49.545Z,18.70
2018-09-19T19:16:18.108Z,18.60
2018-09-19T19:18:46.408Z,18.70
2018-09-19T19:21:14.745Z,18.60
2018-09-19T19:23:43.051Z,18.60
2018-09-19T19:26:11.325Z,18.50
2018-09-19T19:28:39.642Z,18.50
2018-09-19T19:31:07.927Z,18.50
2018-09-19T19:33:36.244Z,18.40
2018-09-19T19:36:04.536Z,18.40
2018-09-19T19:38:32.828Z,18.40
2018-09-19T19:41:01.113Z,18.30
2018-09-19T19:43:29.409Z,18.30
2018-09-19T19:45:57.696Z,18.20
2018-09-19T19:48:25.980Z,18.20
2018-09-19T19:50:54.272Z,18.20
2018-09-19T19:53:22.612Z,18.20
2018-09-19T19:55:50.848Z,18.10
2018-09-19T19:58:19.129Z,18.10
2018-09-19T20:00:47.415Z,18.10
2018-09-19T20:03:15.733Z,18.00
2018-09-19T20:05:43.984Z,18.00
2018-09-19T20:08:12.253Z,18.00
2018-09-19T20:10:40.625Z,18.00
2018-09-19T20:13:08.819Z,17.90
2018-09-19T20:15:37.084Z,17.80
2018-09-19T20:18:05.369Z,17.80
2018-09-19T20:20:33.641Z,17.70
2018-09-19T20:23:01.913Z,17.60
2018-09-19T20:25:30.182Z,17.60
2018-09-19T20:27:58.501Z,17.60
2018-09-19T20:30:26.774Z,17.60
2018-09-19T20:32:55.052Z,17.60
2018-09-19T20:35:23.313Z,17.60
2018-09-19T20:37:51.721Z,17.60
2018-09-19T20:40:19.985Z,17.60
2018-09-19T20:42:48.289Z,17.60
2018-09-19T20:45:16.583Z,17.50
2018-09-19T20:47:44.877Z,17.50
2018-09-19T20:50:13.164Z,17.40
2018-09-19T20:52:41.443Z,17.40
2018-09-19T20:55:09.697Z,17.30
2018-09-19T20:57:37.965Z,17.30
2018-09-19T21:00:06.266Z,17.30
2018-09-19T21:02:34.544Z,17.30
2018-09-19T21:05:02.845Z,17.30
2018-09-19T21:07:31.124Z,17.30
2018-09-19T21:09:59.387Z,17.30
2018-09-19T21:12:27.645Z,17.20
2018-09-19T21:14:55.904Z,17.20
2018-09-19T21:17:24.200Z,17.20
2018-09-19T21:19:52.505Z,17.20
2018-09-19T21:22:20.919Z,17.20
2018-09-19T21:24:49.141Z,17.10
2018-09-19T21:27:17.421Z,17.10
2018-09-19T21:29:45.722Z,17.10
2018-09-19T21:32:14.066Z,17.10
2018-09-19T21:34:42.309Z,17.00
2018-09-19T21:37:10.603Z,17.10
2018-09-19T21:39:38.889Z,17.00
2018-09-19T21:42:07.180Z,17.00
2018-09-19T21:44:35.469Z,16.90
2018-09-19T21:47:03.781Z,16.90
2018-09-19T21:49:32.057Z,16.90
2018-09-19T21:52:00.349Z,16.90
2018-09-19T21:54:28.632Z,16.90
2018-09-19T21:56:57.011Z,16.90
2018-09-19T21:59:25.290Z,16.80
2018-09-19T22:02:00.497Z,16.80
2018-09-19T22:04:28.909Z,16.80
2018-09-19T22:06:57.245Z,16.80
2018-09-19T22:09:25.537Z,16.80
2018-09-19T22:11:53.834Z,16.80
2018-09-19T22:14:22.120Z,16.70
2018-09-19T22:16:50.401Z,16.70
2018-09-19T22:19:18.704Z,16.70
2018-09-19T22:21:46.992Z,16.60
2018-09-19T22:24:15.299Z,16.60
2018-09-19T22:26:43.577Z,16.60
2018-09-19T22:29:11.878Z,16.60
2018-09-19T22:31:40.160Z,16.60
2018-09-19T22:34:08.451Z,16.60
2018-09-19T22:36:36.732Z,16.50
2018-09-19T22:39:07.224Z,16.40
2018-09-19T22:41:35.562Z,16.30
2018-09-19T22:44:03.873Z,16.20
2018-09-19T22:46:32.194Z,16.20
2018-09-19T22:49:00.480Z,16.10
2018-09-19T22:51:28.781Z,16.20
2018-09-19T22:53:57.097Z,16.20
2018-09-19T22:56:25.377Z,16.20
2018-09-19T22:58:53.660Z,16.10
2018-09-19T23:01:21.956Z,16.10
2018-09-19T23:03:50.261Z,16.10
2018-09-19T23:06:18.537Z,16.10
2018-09-19T23:08:46.873Z,16.10
2018-09-19T23:11:15.184Z,16.10
2018-09-19T23:13:43.468Z,16.10
2018-09-19T23:16:11.766Z,16.10
2018-09-19T23:18:40.040Z,16.10
2018-09-19T23:21:08.333Z,16.00
2018-09-19T23:23:36.694Z,16.00
2018-09-19T23:26:05.058Z,16.00
2018-09-19T23:28:33.353Z,16.00
2018-09-19T23:31:01.673Z,15.90
2018-09-19T23:33:29.951Z,15.90
2018-09-19T23:35:58.245Z,15.90
2018-09-19T23:38:26.561Z,15.90
2018-09-19T23:40:54.849Z,15.90
2018-09-19T23:43:23.145Z,15.90
2018-09-19T23:45:51.569Z,15.80
2018-09-19T23:48:19.857Z,15.80
2018-09-19T23:50:48.192Z,15.80
2018-09-19T23:53:16.561Z,15.70
2018-09-19T23:55:44.856Z,15.70
2018-09-19T23:58:13.148Z,15.70
